Time;durP1;ratioP1;P1;durP2;ratioP2;P2;SDS_P1;SDS_P2;PMS_P1;PMS_P2;Temp;Humidity;BMP_temperature;BMP_pressure;BME280_temperature;BME280_humidity;BME280_pressure;Samples;Min_cycle;Max_cycle;Signal;HPM_P1;HPM_P2
2023/05/14 00:02:13;;;;;;;;;26.33;20.33;;;;;17.81;65.40;-19684.72;4978219;28;45368;-82
2023/05/14 00:04:39;;;;;;;;;21.33;21.00;;;;;17.79;65.88;-19684.16;4979328;28;45407;-82
2023/05/14 00:07:05;;;;;;;;;22.00;19.67;;;;;17.76;65.65;-19683.38;4978363;28;45467;-82
2023/05/14 00:09:31;;;;;;;;;26.00;19.67;;;;;17.72;65.60;-19682.44;4979310;28;45408;-82
2023/05/14 00:11:57;;;;;;;;;21.00;21.00;;;;;17.69;65.47;-19681.63;4959771;28;45385;-81
2023/05/14 00:14:22;;;;;;;;;22.00;19.67;;;;;17.67;65.68;-19681.09;4959647;28;45493;-82
2023/05/14 00:16:48;;;;;;;;;21.67;21.00;;;;;17.55;65.42;-19677.88;4979570;28;46062;-82
2023/05/14 00:19:13;;;;;;;;;27.67;21.33;;;;;17.61;65.50;-19679.50;4997711;28;45946;-82
2023/05/14 00:21:39;;;;;;;;;23.67;21.33;;;;;17.46;65.60;-19675.59;4979347;28;45521;-82
2023/05/14 00:24:04;;;;;;;;;21.67;19.67;;;;;17.44;65.58;-19675.06;4980811;28;47680;-82
2023/05/14 00:26:30;;;;;;;;;23.33;22.33;;;;;17.55;65.49;-19677.75;4979029;28;45979;-82
2023/05/14 00:28:58;;;;;;;;;23.00;20.33;;;;;17.41;65.20;-19674.13;4976540;28;45477;-81
2023/05/14 00:31:23;;;;;;;;;23.00;21.00;;;;;17.40;65.64;-19674.00;4977934;28;45593;-82
2023/05/14 00:33:49;;;;;;;;;25.00;23.00;;;;;17.15;65.76;-19667.44;4980952;28;45649;-82
2023/05/14 00:36:15;;;;;;;;;20.00;20.00;;;;;17.31;65.76;-19671.59;4984893;28;45449;-82
2023/05/14 00:38:40;;;;;;;;;25.67;21.33;;;;;17.38;65.61;-19673.47;4978938;28;45546;-82
2023/05/14 00:41:05;;;;;;;;;21.33;21.33;;;;;17.24;65.86;-19669.84;4976814;28;45432;-82
2023/05/14 00:43:32;;;;;;;;;20.33;19.33;;;;;17.33;65.58;-19672.00;4977585;28;45473;-82
2023/05/14 00:45:58;;;;;;;;;24.67;21.00;;;;;17.29;65.93;-19671.19;4983503;28;47184;-82
2023/05/14 00:48:24;;;;;;;;;23.33;20.33;;;;;17.24;65.98;-19669.72;4977095;28;45486;-82
2023/05/14 00:50:50;;;;;;;;;23.00;21.00;;;;;17.18;66.13;-19668.13;4986652;28;45875;-81
2023/05/14 00:53:17;;;;;;;;;24.33;23.33;;;;;17.22;65.62;-19669.19;4997427;28;45495;-81
2023/05/14 00:55:45;;;;;;;;;23.00;21.33;;;;;17.14;65.73;-19667.19;4989258;28;47289;-81
2023/05/14 00:58:12;;;;;;;;;23.67;21.00;;;;;17.18;66.25;-19668.25;4979458;28;45613;-81
2023/05/14 05:00:49;;;;;;;;;26.67;21.33;;;;;16.14;68.89;-19641.06;5698018;23;46278;-81
2023/05/14 05:03:14;;;;;;;;;29.67;22.33;;;;;16.06;68.90;-19638.78;4968952;28;46400;-81
2023/05/14 05:05:40;;;;;;;;;28.67;22.67;;;;;16.13;68.98;-19640.78;4996277;28;45796;-81
2023/05/14 05:08:05;;;;;;;;;25.00;21.33;;;;;16.00;69.09;-19637.44;4997251;28;45485;-81
2023/05/14 05:10:31;;;;;;;;;27.00;21.00;;;;;16.14;69.27;-19640.91;4996169;28;45521;-81
2023/05/14 05:12:56;;;;;;;;;26.33;24.33;;;;;16.13;68.94;-19640.78;4996006;28;45383;-81
2023/05/14 05:15:21;;;;;;;;;20.67;20.00;;;;;15.97;69.20;-19636.50;4997315;28;45667;-81
2023/05/14 05:17:50;;;;;;;;;28.67;24.33;;;;;16.13;69.24;-19640.78;4995942;28;45399;-81
2023/05/14 05:20:15;;;;;;;;;27.00;26.00;;;;;15.88;68.86;-19634.22;4995200;28;45556;-81
2023/05/14 05:22:40;;;;;;;;;27.33;25.00;;;;;16.14;69.33;-19641.06;4995752;28;45487;-81
2023/05/14 05:25:06;;;;;;;;;29.67;22.67;;;;;16.13;69.29;-19640.78;4996224;28;45839;-81
2023/05/14 05:27:32;;;;;;;;;26.67;24.67;;;;;16.12;69.33;-19640.50;4994450;28;45435;-81
2023/05/14 05:29:58;;;;;;;;;29.00;24.33;;;;;16.10;69.21;-19639.97;4996752;28;47152;-80
2023/05/14 05:32:24;;;;;;;;;23.00;20.67;;;;;16.06;69.26;-19638.78;4995179;28;45723;-81
2023/05/14 05:34:50;;;;;;;;;26.00;23.67;;;;;15.99;69.36;-19637.16;4996274;28;45558;-80
2023/05/14 05:37:16;;;;;;;;;28.67;25.33;;;;;16.12;69.54;-19640.38;4997127;28;45708;-81
2023/05/14 05:39:41;;;;;;;;;24.00;21.67;;;;;16.07;69.50;-19639.03;4995777;28;46143;-81
2023/05/14 05:42:07;;;;;;;;;28.33;22.33;;;;;16.10;69.29;-19639.84;4977608;28;45495;-81
2023/05/14 05:44:32;;;;;;;;;24.00;22.67;;;;;16.01;69.75;-19637.72;4996887;28;45414;-81
2023/05/14 05:46:57;;;;;;;;;29.33;26.00;;;;;16.11;69.63;-19640.13;4995514;28;45393;-81
2023/05/14 05:49:23;;;;;;;;;23.00;19.33;;;;;16.11;69.48;-19640.13;4993783;28;45443;-80
2023/05/14 05:51:48;;;;;;;;;27.00;22.67;;;;;16.10;69.47;-19639.97;4996508;28;45345;-80
2023/05/14 05:54:14;;;;;;;;;25.33;22.00;;;;;15.94;70.08;-19635.81;4992631;28;45624;-80
2023/05/14 05:56:39;;;;;;;;;32.67;27.67;;;;;16.10;69.63;-19639.97;4978698;28;45538;-80
2023/05/14 05:59:05;;;;;;;;;22.00;20.67;;;;;16.11;69.50;-19640.13;4994330;28;45425;-81
2023/05/14 06:01:31;;;;;;;;;27.00;22.00;;;;;15.97;69.50;-19636.50;4971710;28;45530;-80
2023/05/14 06:03:56;;;;;;;;;28.33;25.67;;;;;16.03;69.55;-19638.09;4976815;28;45625;-79
2023/05/14 06:06:21;;;;;;;;;27.67;23.33;;;;;16.00;69.78;-19637.31;4993808;28;46727;-80
2023/05/14 06:08:46;;;;;;;;;30.33;22.33;;;;;16.09;69.32;-19639.59;4995543;28;46526;-80
2023/05/14 06:11:12;;;;;;;;;29.00;22.67;;;;;15.97;69.47;-19636.50;4992095;28;45521;-80
2023/05/14 06:13:37;;;;;;;;;24.67;23.00;;;;;15.96;69.77;-19636.34;4995878;28;45670;-80
2023/05/14 06:16:03;;;;;;;;;29.67;26.33;;;;;15.99;70.00;-19637.16;4996277;28;45451;-80
2023/05/14 06:18:30;;;;;;;;;23.33;23.33;;;;;15.90;69.76;-19634.75;4995233;28;45773;-84
2023/05/14 06:20:58;;;;;;;;;28.33;25.33;;;;;16.10;69.38;-19639.97;4985135;28;45721;-80
2023/05/14 06:23:25;;;;;;;;;31.00;29.33;;;;;16.12;69.86;-19640.38;4984592;28;45579;-80
2023/05/14 06:25:50;;;;;;;;;31.33;25.67;;;;;16.04;69.39;-19638.38;4988636;28;45868;-80
2023/05/14 06:28:15;;;;;;;;;28.33;23.67;;;;;16.02;69.67;-19637.97;4993566;28;46623;-82
2023/05/14 06:30:41;;;;;;;;;30.33;26.33;;;;;16.02;69.69;-19637.97;4990330;28;45372;-79
2023/05/14 06:33:06;;;;;;;;;28.33;27.00;;;;;15.99;69.87;-19637.03;4987661;28;45471;-79
2023/05/14 06:35:31;;;;;;;;;38.33;28.33;;;;;16.09;69.60;-19639.59;4987361;28;45508;-79
2023/05/14 06:37:57;;;;;;;;;34.67;23.00;;;;;15.97;69.54;-19636.63;4992198;28;45423;-80
2023/05/14 06:40:22;;;;;;;;;28.67;24.67;;;;;16.07;69.75;-19639.03;4991245;28;45564;-79
2023/05/14 06:42:47;;;;;;;;;31.33;26.67;;;;;16.04;69.52;-19638.50;4993861;28;45750;-79
2023/05/14 06:45:13;;;;;;;;;47.67;37.67;;;;;16.05;70.01;-19638.63;4992613;28;45467;-79
2023/05/14 06:47:38;;;;;;;;;34.00;28.67;;;;;15.96;69.63;-19636.34;4992454;28;46897;-79
2023/05/14 06:50:04;;;;;;;;;29.00;27.33;;;;;15.97;69.67;-19636.63;4987642;28;45465;-79
2023/05/14 06:52:29;;;;;;;;;30.00;27.67;;;;;16.07;69.67;-19639.19;4995003;28;45510;-79
2023/05/14 06:54:55;;;;;;;;;24.33;24.00;;;;;16.03;70.22;-19638.25;4993451;28;45436;-79
2023/05/14 06:57:20;;;;;;;;;31.67;28.33;;;;;15.94;69.73;-19635.69;4974672;28;48003;-79
2023/05/14 06:59:46;;;;;;;;;28.33;26.00;;;;;16.08;70.27;-19639.31;4991286;28;45908;-79
2023/05/14 07:02:11;;;;;;;;;32.33;26.33;;;;;16.03;69.85;-19638.25;4989929;28;45459;-79
2023/05/14 07:04:36;;;;;;;;;28.33;22.00;;;;;16.07;69.86;-19639.03;4983181;28;45672;-79
2023/05/14 07:07:02;;;;;;;;;26.33;25.00;;;;;16.06;69.87;-19638.91;4985038;28;53114;-79
2023/05/14 07:09:29;;;;;;;;;29.00;22.00;;;;;15.98;69.89;-19636.91;4993429;28;45408;-80
2023/05/14 07:11:54;;;;;;;;;33.67;27.67;;;;;15.94;69.57;-19635.69;4995063;28;45661;-79
2023/05/14 07:14:19;;;;;;;;;23.67;18.33;;;;;15.89;69.71;-19634.34;4995741;28;45386;-79
2023/05/14 07:16:45;;;;;;;;;29.00;26.67;;;;;15.90;69.61;-19634.63;4993419;28;46161;-80
2023/05/14 07:19:11;;;;;;;;;27.33;25.67;;;;;16.09;69.89;-19639.59;4982353;28;45461;-80
2023/05/14 07:21:36;;;;;;;;;28.00;23.67;;;;;16.07;69.50;-19639.19;4993847;28;45468;-80
2023/05/14 07:24:02;;;;;;;;;35.00;28.00;;;;;16.04;69.96;-19638.50;4993679;28;45465;-80
2023/05/14 07:26:27;;;;;;;;;24.00;22.00;;;;;16.07;70.01;-19639.19;4994937;28;45407;-79
2023/05/14 07:28:53;;;;;;;;;33.00;24.67;;;;;15.89;69.64;-19634.34;4994522;28;45539;-80
2023/05/14 07:31:18;;;;;;;;;28.00;20.33;;;;;15.88;69.51;-19634.09;4993061;28;45446;-79
2023/05/14 07:33:43;;;;;;;;;27.67;24.00;;;;;16.06;69.72;-19638.91;4987320;28;45423;-79
2023/05/14 07:36:09;;;;;;;;;24.33;21.00;;;;;16.07;69.91;-19639.19;4990676;28;52177;-79
2023/05/14 07:38:34;;;;;;;;;27.00;24.33;;;;;16.08;69.96;-19639.31;4987566;28;45816;-79
2023/05/14 07:40:59;;;;;;;;;27.00;21.33;;;;;15.96;69.46;-19636.34;4994029;28;45984;-79
2023/05/14 07:43:25;;;;;;;;;23.00;21.33;;;;;16.04;69.53;-19638.50;4995091;28;45431;-80
2023/05/14 07:45:50;;;;;;;;;26.33;23.67;;;;;15.81;69.61;-19632.34;4994376;28;46153;-79
2023/05/14 07:48:16;;;;;;;;;22.00;22.00;;;;;15.93;69.47;-19635.44;4994091;28;45368;-80
2023/05/14 07:50:41;;;;;;;;;24.67;23.67;;;;;16.09;69.53;-19639.59;4994928;28;47084;-80
2023/05/14 07:53:06;;;;;;;;;26.67;23.00;;;;;16.10;69.74;-19639.84;4997664;28;45430;-81
2023/05/14 07:55:32;;;;;;;;;26.33;24.33;;;;;15.97;69.66;-19636.63;4997409;28;46404;-80
2023/05/14 07:57:57;;;;;;;;;20.67;16.00;;;;;16.10;69.67;-19639.84;4995672;28;45391;-79
2023/05/14 08:00:23;;;;;;;;;32.00;21.00;;;;;16.14;69.92;-19640.91;4996151;28;45600;-78
2023/05/14 08:02:49;;;;;;;;;20.00;18.00;;;;;16.03;69.67;-19638.09;4996625;28;45534;-79
2023/05/14 08:05:14;;;;;;;;;25.00;23.33;;;;;16.16;69.85;-19641.59;4997325;28;46069;-81
2023/05/14 08:07:40;;;;;;;;;25.33;22.67;;;;;16.18;69.83;-19642.00;4995672;28;45478;-82
2023/05/14 08:10:06;;;;;;;;;25.00;18.67;;;;;16.18;69.41;-19642.13;4993511;28;45930;-80
2023/05/14 08:12:32;;;;;;;;;27.00;21.67;;;;;16.20;69.50;-19642.66;4996386;28;45508;-80
2023/05/14 08:14:57;;;;;;;;;21.00;19.00;;;;;16.14;69.24;-19640.91;4996572;28;47237;-81
2023/05/14 08:17:23;;;;;;;;;27.00;23.33;;;;;16.26;69.44;-19644.13;4997244;28;45418;-81
2023/05/14 08:19:48;;;;;;;;;19.00;15.00;;;;;16.22;69.63;-19643.19;4995889;28;45504;-81
2023/05/14 08:22:14;;;;;;;;;21.33;18.00;;;;;16.21;69.30;-19642.94;4992439;28;45444;-80
2023/05/14 08:24:39;;;;;;;;;24.67;20.67;;;;;16.22;69.59;-19643.06;4996387;28;45582;-81
2023/05/14 08:27:05;;;;;;;;;20.67;18.33;;;;;16.10;69.10;-19639.84;4997134;28;45789;-83
2023/05/14 08:29:30;;;;;;;;;30.00;23.33;;;;;16.31;69.55;-19645.47;4997278;28;45292;-81
2023/05/14 08:31:56;;;;;;;;;23.33;20.33;;;;;16.33;69.24;-19645.88;4977847;28;45627;-81
2023/05/14 08:34:21;;;;;;;;;20.33;19.33;;;;;16.21;69.44;-19642.78;4996566;28;46955;-81
2023/05/14 08:36:46;;;;;;;;;27.67;21.67;;;;;16.16;69.42;-19641.47;4995791;28;45538;-81
2023/05/14 08:39:12;;;;;;;;;21.33;21.00;;;;;16.24;69.59;-19643.59;4987785;28;45536;-81
2023/05/14 08:41:38;;;;;;;;;26.33;21.67;;;;;16.33;69.42;-19646.00;4990840;28;45391;-80
2023/05/14 08:44:12;;;;;;;;;23.33;22.67;;;;;16.27;69.42;-19644.41;4961758;28;47207;-81
2023/05/14 08:46:38;;;;;;;;;22.33;21.67;;;;;16.33;69.30;-19645.88;4995067;28;45600;-81
2023/05/14 08:49:16;;;;;;;;;22.67;15.33;;;;;16.29;69.70;-19644.81;4988231;28;45641;-81
2023/05/14 08:51:45;;;;;;;;;23.67;19.33;;;;;16.23;69.65;-19643.34;4989147;28;45777;-81
2023/05/14 08:54:14;;;;;;;;;21.00;20.00;;;;;16.12;69.40;-19640.38;4993186;28;47172;-83
2023/05/14 08:56:45;;;;;;;;;21.67;17.33;;;;;16.19;69.62;-19642.41;4990491;28;45606;-81
2023/05/14 08:59:11;;;;;;;;;28.33;20.67;;;;;16.07;69.45;-19639.19;4987990;28;45573;-81
2023/05/14 09:01:40;;;;;;;;;19.33;16.67;;;;;16.23;69.24;-19643.47;4993815;28;45629;-81
2023/05/14 09:04:07;;;;;;;;;20.33;18.67;;;;;16.27;69.59;-19644.41;4993842;28;46008;-81
2023/05/14 09:06:36;;;;;;;;;22.33;21.33;;;;;16.21;69.14;-19642.78;4992168;28;45728;-82
2023/05/14 09:09:05;;;;;;;;;27.67;22.33;;;;;16.38;68.94;-19647.34;4992369;28;45516;-82
2023/05/14 09:11:31;;;;;;;;;24.00;19.00;;;;;16.45;69.50;-19649.22;4996028;28;45411;-83
2023/05/14 09:13:56;;;;;;;;;24.67;22.00;;;;;16.45;68.98;-19649.09;4988014;28;45470;-83
2023/05/14 09:16:24;;;;;;;;;21.33;18.67;;;;;16.39;69.46;-19647.63;4989795;28;45571;-83
2023/05/14 09:18:50;;;;;;;;;23.33;21.67;;;;;16.39;69.24;-19647.63;4988628;28;46223;-84
2023/05/14 09:21:17;;;;;;;;;27.00;22.33;;;;;16.49;69.01;-19650.03;4981065;28;45498;-82
2023/05/14 09:23:43;;;;;;;;;25.67;21.67;;;;;16.35;69.21;-19646.41;4972626;28;47326;-81
2023/05/14 09:26:09;;;;;;;;;24.67;22.00;;;;;16.50;69.07;-19650.28;4993239;28;45556;-82
2023/05/14 09:28:34;;;;;;;;;27.33;22.00;;;;;16.51;69.34;-19650.69;4973709;28;45612;-83
2023/05/14 09:31:07;;;;;;;;;25.33;20.33;;;;;16.51;69.38;-19650.69;4990470;28;45535;-82
2023/05/14 09:33:33;;;;;;;;;22.00;20.00;;;;;16.52;69.63;-19650.84;4990709;28;45586;-83
2023/05/14 09:36:02;;;;;;;;;22.67;22.33;;;;;16.53;69.66;-19651.09;4994916;28;46047;-83
2023/05/14 09:38:28;;;;;;;;;23.33;17.00;;;;;16.56;69.44;-19651.91;4990765;28;45516;-83
2023/05/14 09:40:54;;;;;;;;;26.67;21.33;;;;;16.40;69.54;-19647.75;4989356;28;45501;-83
2023/05/14 09:43:20;;;;;;;;;28.67;23.67;;;;;16.46;69.38;-19649.50;4986904;28;46367;-84
2023/05/14 09:45:45;;;;;;;;;24.33;21.67;;;;;16.60;69.16;-19652.97;4982885;28;45367;-82
2023/05/14 09:48:11;;;;;;;;;25.33;21.00;;;;;16.59;69.63;-19652.72;4983254;28;45414;-83
2023/05/14 09:50:44;;;;;;;;;20.00;19.00;;;;;16.53;69.65;-19651.09;4986647;28;45578;-85
2023/05/14 09:53:11;;;;;;;;;30.33;23.67;;;;;16.59;69.52;-19652.84;4990097;28;47044;-83
2023/05/14 09:55:37;;;;;;;;;32.67;29.00;;;;;16.59;69.50;-19652.72;4990365;28;45414;-83
2023/05/14 09:58:02;;;;;;;;;23.67;23.33;;;;;16.44;69.19;-19648.81;4993977;28;45976;-83
2023/05/14 10:00:30;;;;;;;;;33.67;26.33;;;;;16.65;69.75;-19654.44;4987767;28;45954;-84
2023/05/14 10:02:56;;;;;;;;;26.33;23.33;;;;;16.64;68.86;-19654.19;4990660;28;46388;-82
2023/05/14 10:05:22;;;;;;;;;24.00;21.67;;;;;16.71;69.50;-19655.91;4993054;28;45491;-83
2023/05/14 10:07:50;;;;;;;;;21.67;21.67;;;;;16.57;69.09;-19652.31;4995785;28;45483;-83
2023/05/14 10:10:23;;;;;;;;;28.67;22.00;;;;;16.74;68.64;-19656.72;4993915;28;45400;-83
2023/05/14 10:13:05;;;;;;;;;24.33;23.33;;;;;16.85;68.94;-19659.69;4993363;28;46345;-84
2023/05/14 10:15:41;;;;;;;;;26.67;21.00;;;;;16.74;68.67;-19656.72;4995335;28;45553;-83
2023/05/14 10:18:14;;;;;;;;;28.67;23.33;;;;;16.97;68.93;-19662.63;4993511;28;45810;-83
2023/05/14 10:20:40;;;;;;;;;22.67;18.00;;;;;16.91;68.49;-19661.03;4990850;28;46612;-84
2023/05/14 10:23:06;;;;;;;;;30.00;23.00;;;;;17.04;68.60;-19664.63;4982106;28;47373;-84
2023/05/14 10:25:33;;;;;;;;;28.33;21.00;;;;;16.88;68.78;-19660.34;4981553;28;45600;-84
2023/05/14 10:27:59;;;;;;;;;32.33;25.67;;;;;16.83;68.58;-19659.00;4989221;28;45441;-83
2023/05/14 10:30:25;;;;;;;;;26.33;24.00;;;;;17.14;68.83;-19667.19;4987446;28;45505;-83
2023/05/14 10:33:06;;;;;;;;;24.67;20.00;;;;;17.18;69.07;-19668.13;4988630;28;47120;-84
2023/05/14 10:35:51;;;;;;;;;23.33;21.67;;;;;17.07;68.73;-19665.31;4992997;28;45566;-84
2023/05/14 10:38:16;;;;;;;;;27.67;22.33;;;;;17.28;68.80;-19670.78;4990813;28;45558;-83
2023/05/14 10:40:42;;;;;;;;;24.67;21.00;;;;;17.13;68.88;-19666.91;4992976;28;45439;-83
2023/05/14 10:43:10;;;;;;;;;21.00;21.00;;;;;17.16;68.36;-19667.56;4981578;28;45719;-83
2023/05/14 10:45:35;;;;;;;;;27.00;24.33;;;;;17.39;68.70;-19673.59;4990726;28;45423;-85
2023/05/14 10:48:01;;;;;;;;;22.00;19.33;;;;;17.46;68.61;-19675.47;4979775;28;45806;-83
2023/05/14 10:50:27;;;;;;;;;28.00;22.33;;;;;17.49;68.63;-19676.41;4983186;28;45648;-83
2023/05/14 10:52:55;;;;;;;;;21.00;21.00;;;;;17.53;68.66;-19677.34;4980928;28;46241;-82
2023/05/14 10:55:21;;;;;;;;;30.00;23.00;;;;;17.67;68.53;-19681.09;4983214;28;45684;-84
2023/05/14 10:57:47;;;;;;;;;22.00;19.67;;;;;17.62;68.59;-19679.75;4993059;28;45782;-84
2023/05/14 11:00:14;;;;;;;;;25.33;23.00;;;;;17.83;68.33;-19685.25;4987257;28;45496;-84
2023/05/14 11:02:43;;;;;;;;;28.67;22.67;;;;;17.81;68.37;-19684.56;4989912;28;47005;-84
2023/05/14 11:05:14;;;;;;;;;31.00;28.33;;;;;17.91;67.80;-19687.25;4985824;28;45556;-83
2023/05/14 11:07:44;;;;;;;;;26.67;25.33;;;;;17.77;68.06;-19683.50;4985352;28;45585;-85
2023/05/14 11:10:14;;;;;;;;;29.33;25.00;;;;;18.02;67.93;-19690.19;4988616;28;45722;-84
2023/05/14 11:12:42;;;;;;;;;25.67;21.00;;;;;18.24;68.12;-19695.94;4988516;28;47038;-83
2023/05/14 11:15:09;;;;;;;;;23.00;19.33;;;;;18.32;67.68;-19697.94;4987743;28;45412;-84
2023/05/14 11:17:36;;;;;;;;;20.67;19.33;;;;;18.44;67.96;-19701.16;4991857;28;45771;-84
2023/05/14 11:20:02;;;;;;;;;20.33;19.33;;;;;18.43;67.38;-19700.88;4992061;28;45809;-84
2023/05/14 11:22:27;;;;;;;;;26.00;23.00;;;;;18.54;67.57;-19703.69;4989358;28;47161;-84
2023/05/14 11:24:53;;;;;;;;;28.33;23.67;;;;;18.63;67.01;-19705.97;4997009;28;45501;-86
2023/05/14 11:27:20;;;;;;;;;26.00;19.00;;;;;18.75;67.58;-19709.31;5001749;28;45738;-85
2023/05/14 11:29:46;;;;;;;;;27.33;26.67;;;;;18.69;67.14;-19707.69;4993804;28;45571;-85
2023/05/14 11:32:13;;;;;;;;;20.00;17.00;;;;;18.72;66.94;-19708.50;4994442;28;45494;-84
2023/05/14 11:34:39;;;;;;;;;28.00;24.67;;;;;19.04;66.89;-19716.66;4986908;28;45473;-84
2023/05/14 11:37:08;;;;;;;;;25.67;22.33;;;;;19.16;67.18;-19719.84;5000440;28;45368;-84
2023/05/14 11:39:36;;;;;;;;;18.33;16.67;;;;;19.20;66.93;-19720.94;4995605;28;45515;-84
2023/05/14 11:42:12;;;;;;;;;23.67;18.00;;;;;19.51;66.82;-19728.94;4991738;28;46217;-85
2023/05/14 11:44:38;;;;;;;;;24.67;19.00;;;;;19.67;66.81;-19733.19;4994761;28;45514;-83
2023/05/14 11:47:04;;;;;;;;;23.00;21.00;;;;;20.05;65.85;-19742.94;4997482;28;45453;-84
2023/05/14 11:49:31;;;;;;;;;21.33;20.67;;;;;20.35;66.21;-19750.81;4969995;28;45552;-84
2023/05/14 11:52:04;;;;;;;;;20.00;19.33;;;;;20.47;65.70;-19753.88;4992847;28;46524;-93
2023/05/14 11:54:31;;;;;;;;;24.67;22.33;;;;;20.73;64.98;-19760.81;4978177;28;45492;-84
2023/05/14 11:57:01;;;;;;;;;26.67;25.67;;;;;20.84;65.10;-19763.75;4998924;28;45885;-85
2023/05/14 11:59:34;;;;;;;;;32.00;28.00;;;;;21.11;64.46;-19770.53;4994618;28;45850;-86
2023/05/14 12:02:00;;;;;;;;;22.33;22.33;;;;;21.26;63.61;-19774.66;4991284;28;45879;-89
2023/05/14 12:04:27;;;;;;;;;25.00;23.00;;;;;21.62;63.88;-19783.84;4997362;28;45314;-82
2023/05/14 12:06:53;;;;;;;;;23.67;20.00;;;;;21.64;63.70;-19784.38;4994333;28;45582;-86
2023/05/14 12:09:20;;;;;;;;;17.67;17.67;;;;;22.01;62.99;-19794.09;4996014;28;45608;-82
2023/05/14 12:11:50;;;;;;;;;23.33;21.33;;;;;22.12;61.55;-19796.88;4992713;28;46191;-82
2023/05/14 12:14:24;;;;;;;;;18.33;16.33;;;;;22.31;61.97;-19801.81;4995666;28;45514;-83
2023/05/14 12:16:50;;;;;;;;;15.33;15.00;;;;;22.61;61.70;-19809.66;4992879;28;45515;-80
2023/05/14 12:19:18;;;;;;;;;26.67;23.33;;;;;22.80;61.39;-19814.56;4999061;28;45408;-86
2023/05/14 12:21:47;;;;;;;;;25.67;21.33;;;;;22.84;60.92;-19815.63;4993722;28;46924;-83
2023/05/14 12:24:15;;;;;;;;;21.00;19.00;;;;;22.96;59.71;-19818.69;4993670;28;45952;-82
2023/05/14 12:26:48;;;;;;;;;21.00;18.33;;;;;23.00;59.90;-19819.63;4990923;28;45715;-82
2023/05/14 12:29:15;;;;;;;;;17.33;16.33;;;;;23.12;59.29;-19822.81;4987392;28;45450;-82
2023/05/14 12:31:46;;;;;;;;;18.67;18.67;;;;;23.08;59.35;-19821.88;4994094;28;46955;-82
2023/05/14 12:34:11;;;;;;;;;18.33;16.67;;;;;23.04;59.06;-19820.81;4991717;28;46412;-82
2023/05/14 12:36:37;;;;;;;;;19.00;17.00;;;;;22.83;59.02;-19815.25;4997319;28;45484;-82
2023/05/14 12:39:02;;;;;;;;;19.33;18.33;;;;;22.90;59.55;-19817.09;4989995;28;45756;-81
2023/05/14 12:41:29;;;;;;;;;21.00;18.00;;;;;22.74;59.42;-19813.13;4969024;28;46175;-82
2023/05/14 12:43:55;;;;;;;;;17.33;15.67;;;;;22.75;58.96;-19813.25;4987489;28;45438;-81
2023/05/14 12:46:20;;;;;;;;;17.00;15.33;;;;;22.61;58.61;-19809.53;4987874;28;45510;-81
2023/05/14 12:48:46;;;;;;;;;19.67;18.00;;;;;22.67;59.50;-19811.13;4962706;28;45536;-81
2023/05/14 12:51:11;;;;;;;;;18.33;18.33;;;;;22.59;58.69;-19809.00;4990841;28;45958;-83
2023/05/14 12:53:37;;;;;;;;;24.00;19.67;;;;;22.66;58.62;-19810.97;4994625;28;45310;-81
2023/05/14 12:56:02;;;;;;;;;19.33;18.33;;;;;22.67;59.19;-19811.13;4993716;28;45414;-80
2023/05/14 12:58:28;;;;;;;;;18.00;16.67;;;;;22.58;59.35;-19808.72;4994310;28;45535;-81
2023/05/14 13:00:53;;;;;;;;;22.67;19.00;;;;;22.35;59.10;-19802.88;4992802;28;46898;-81
2023/05/14 13:03:19;;;;;;;;;16.33;13.67;;;;;22.23;59.30;-19799.69;4992054;28;45650;-83
2023/05/14 13:05:44;;;;;;;;;21.67;20.00;;;;;22.39;59.02;-19803.81;4992881;28;45793;-83
2023/05/14 13:08:11;;;;;;;;;22.00;22.00;;;;;22.55;58.58;-19808.19;4991839;28;45802;-82
2023/05/14 13:10:37;;;;;;;;;19.33;18.33;;;;;22.53;59.45;-19807.53;4994490;28;46701;-81
2023/05/14 13:13:02;;;;;;;;;27.33;22.67;;;;;22.51;58.86;-19807.00;4980305;28;56033;-81
2023/05/14 13:15:27;;;;;;;;;32.67;28.33;;;;;22.46;59.12;-19805.66;4991557;28;45510;-81
2023/05/14 13:17:53;;;;;;;;;19.33;19.33;;;;;22.44;59.41;-19805.13;4993701;28;45590;-81
2023/05/14 13:20:18;;;;;;;;;24.67;21.00;;;;;22.29;59.09;-19801.28;4984687;28;47265;-81
2023/05/14 13:22:44;;;;;;;;;18.67;17.33;;;;;22.38;59.16;-19803.69;4993186;28;45922;-81
2023/05/14 13:25:09;;;;;;;;;18.33;16.67;;;;;22.43;58.94;-19805.00;4983391;28;45609;-81
2023/05/14 13:27:35;;;;;;;;;47.67;38.67;;;;;22.23;59.03;-19799.69;4990666;28;45614;-81
2023/05/14 13:30:01;;;;;;;;;16.67;16.67;;;;;22.25;59.58;-19800.34;4986729;28;46543;-81
2023/05/14 13:32:27;;;;;;;;;13.00;12.67;;;;;22.36;59.34;-19803.00;4990731;28;45428;-82
2023/05/14 13:34:52;;;;;;;;;16.67;16.00;;;;;22.24;59.71;-19800.09;4992671;28;51171;-82
2023/05/14 13:37:17;;;;;;;;;16.33;15.33;;;;;22.25;58.80;-19800.34;4979471;28;45690;-83
2023/05/14 13:39:43;;;;;;;;;17.33;16.00;;;;;22.35;58.48;-19802.88;4992077;28;46504;-83
2023/05/14 13:42:08;;;;;;;;;14.67;14.00;;;;;22.19;58.90;-19798.75;4984892;28;45466;-84
2023/05/14 13:44:35;;;;;;;;;17.00;14.33;;;;;22.31;58.79;-19801.94;4992590;28;45477;-82
2023/05/14 13:47:00;;;;;;;;;16.33;13.33;;;;;22.24;58.84;-19799.94;4994409;28;45679;-82
2023/05/14 13:49:25;;;;;;;;;19.00;15.67;;;;;22.08;58.99;-19795.97;4994698;28;46230;-80
2023/05/14 13:51:51;;;;;;;;;16.33;13.33;;;;;22.14;59.36;-19797.41;4987596;28;45361;-80
2023/05/14 13:54:16;;;;;;;;;16.33;12.33;;;;;22.23;58.83;-19799.69;4982537;28;45774;-81
2023/05/14 13:56:41;;;;;;;;;18.67;15.33;;;;;22.23;58.95;-19799.69;4992992;28;45693;-78
2023/05/14 13:59:07;;;;;;;;;14.33;13.00;;;;;22.22;58.89;-19799.41;4988143;28;56197;-80
2023/05/14 14:01:32;;;;;;;;;14.33;12.67;;;;;22.16;59.49;-19797.94;4987543;28;45550;-86
2023/05/14 14:03:57;;;;;;;;;12.00;12.00;;;;;22.12;59.23;-19796.88;4988522;28;45634;-80
2023/05/14 14:06:25;;;;;;;;;13.33;13.33;;;;;22.18;58.86;-19798.34;4993810;28;45633;-79
2023/05/14 14:08:50;;;;;;;;;13.67;12.00;;;;;22.18;58.92;-19798.34;4971459;28;48394;-80
2023/05/14 14:11:16;;;;;;;;;13.67;13.33;;;;;22.16;59.16;-19797.81;4989283;28;46100;-80
2023/05/14 14:13:41;;;;;;;;;12.33;11.00;;;;;22.09;59.20;-19796.22;4994636;28;45541;-80
2023/05/14 14:16:07;;;;;;;;;9.67;9.67;;;;;22.12;58.05;-19797.03;4985691;28;45758;-80
2023/05/14 14:18:32;;;;;;;;;11.33;10.33;;;;;21.97;58.54;-19793.03;4990554;28;46279;-79
2023/05/14 14:20:58;;;;;;;;;12.67;12.33;;;;;22.08;58.60;-19795.97;4982425;28;45525;-80
2023/05/14 14:23:23;;;;;;;;;10.67;9.33;;;;;22.08;58.74;-19795.81;4993391;28;45485;-80
2023/05/14 14:25:48;;;;;;;;;13.67;12.00;;;;;22.07;58.62;-19795.56;4977913;28;45521;-81
2023/05/14 14:28:14;;;;;;;;;8.00;8.00;;;;;22.08;59.11;-19795.81;4990917;28;46084;-82
2023/05/14 14:30:42;;;;;;;;;13.00;11.67;;;;;21.84;59.26;-19789.72;4992497;28;45722;-83
2023/05/14 14:33:08;;;;;;;;;13.00;13.00;;;;;21.78;59.80;-19788.13;4989588;28;45426;-82
2023/05/14 14:35:34;;;;;;;;;11.33;11.33;;;;;22.02;59.24;-19794.38;4981308;28;45547;-82
2023/05/14 14:37:59;;;;;;;;;13.00;10.00;;;;;21.97;59.29;-19793.03;4985042;28;46395;-82
2023/05/14 14:40:25;;;;;;;;;10.67;9.00;;;;;22.01;59.34;-19794.09;4982574;28;49068;-81
2023/05/14 14:42:50;;;;;;;;;12.00;10.33;;;;;22.01;59.33;-19794.09;4992454;28;45384;-82
2023/05/14 14:45:16;;;;;;;;;8.33;8.33;;;;;22.00;58.95;-19793.84;4993600;28;45458;-83
2023/05/14 14:47:45;;;;;;;;;14.00;10.67;;;;;21.99;59.14;-19793.44;4988445;28;46097;-83
2023/05/14 14:50:13;;;;;;;;;10.67;10.33;;;;;21.83;58.98;-19789.31;4986934;28;45656;-84
2023/05/14 14:52:39;;;;;;;;;8.67;8.67;;;;;21.84;58.82;-19789.72;4995093;28;45500;-83
2023/05/14 14:55:05;;;;;;;;;6.67;6.67;;;;;21.76;58.86;-19787.56;4978367;28;45892;-83
2023/05/14 14:57:30;;;;;;;;;10.00;10.00;;;;;21.77;58.50;-19787.72;4989822;28;46219;-82
2023/05/14 14:59:56;;;;;;;;;10.67;9.33;;;;;21.81;58.47;-19788.78;4984360;28;45439;-81
2023/05/14 15:02:21;;;;;;;;;9.67;9.00;;;;;21.79;58.56;-19788.38;4985435;28;45336;-82
2023/05/14 15:04:47;;;;;;;;;13.67;10.00;;;;;21.72;58.59;-19786.50;4994478;28;45542;-82
2023/05/14 15:07:14;;;;;;;;;11.67;8.00;;;;;21.82;57.98;-19789.03;4978800;28;46160;-81